Historyczne dane pomiarowe

Dodano dane terminowe – wersja testowa.

Dane z okresu 1951-2019

Wersja bazy: 1.34 [2019-03-16, lista zmian], aktualizacja planowana na 2019-04-15

Dane meteo z obszaru Polski uzyskane na podstawie danych udostępnionych przez Instytut Meteorologii i Gospodarki Wodnej – Państwowy Instytut Badawczy.

 

Wybierz Datę:    

       

TemperaturaWilgotnośćWiatrCiśnienieOpadyŚniegCzas trwania zjawisk
 Stacja t tx tn tng RH VA  wxwx mslp ppp RRR   cm mm wxwxwxwxwxwxwx
1956-11-09 -1.5 1.2 -3.5 -6.1 78.8- 4.7 3.7---- 0.0------------
1956-11-08 -1.5 4.0 -5.6-10.2 85.0- 5.0 1.3---- 0.0------------
1956-11-07 0.0 3.1 -1.6 -1.7 85.5- 3.7 2.7---- 0.0------------
1956-11-06 1.8 3.2 -0.4 -1.4 80.3- 5.0 5.7---- 0.0-- 1---------
1956-11-05 3.3 7.7 0.7 1.5 94.0- 5.7 5.7---- 0.9------------
1956-11-04 1.8 3.8 -3.6 -7.5 76.5- 6.3 3.3---- 0.1------------
1956-11-03 0.5 4.7 -3.7 -6.2 86.0- 5.0 1.3---- 0.0------------
1956-11-02 1.2 4.4 -0.4 -0.6 88.5- 5.7 0.7---- 0.0------------
1956-11-01 -0.8 1.7 -9.2-10.4 87.3- 7.3 4.0---- 0.6------------
1956-10-31 -6.4 -1.5 -8.2-11.9 78.0- 1.0 2.7---- 0.0------------
1956-10-30 -1.1 2.8 -2.2 -0.1 84.5- 8.0 6.7---- 0.0------------
1956-10-29 4.1 6.9 2.8 4.9 91.3- 8.0 4.0---- 1.7------------
1956-10-28 7.9 9.5 6.0 7.8 96.8- 8.0 4.3---- 8.4------------
1956-10-27 7.3 8.3 6.2 5.2 93.0- 8.0 5.3---- 7.8------------
1956-10-26 7.3 10.7 6.4 4.6 89.8- 8.0 0.7---- 4.9------------
1956-10-25 11.2 14.4 8.6 6.1 82.0- 7.3 3.7---- 1.1------------
1956-10-24 12.2 15.1 4.4 2.3 83.8- 8.0 4.0---- 0.0------------
1956-10-23 8.0 13.3 4.2 9.4 83.5- 6.7 4.3---- 0.0------------
1956-10-22 11.7 12.5 8.6 6.0 81.8- 8.0 4.0---- 0.0------------
1956-10-21 12.1 17.3 7.2 4.0 90.3- 4.0 3.0---- 0.0------------
1956-10-20 10.5 13.9 7.2 5.9 88.5- 8.0 2.7---- 0.0------------
1956-10-19 10.5 13.9 7.8 10.8 88.3- 7.3 4.7---- 0.0------------
1956-10-18 11.7 15.0 3.9 1.9 91.8- 8.0 3.7---- 2.0------------
1956-10-17 8.0 15.4 -0.6 -4.4 73.5- 0.0 3.7---- 0.0------------
1956-10-16 3.5 13.7 -2.9 -4.7 85.0- 1.3 0.0---- 0.0------------
1956-10-15 3.9 12.6 -0.3 -3.1 85.8- 0.7 1.3---- 0.0------------
1956-10-14 6.9 11.7 4.5 4.8 75.8- 2.3 5.7---- 0.0------------
1956-10-13 10.9 12.6 8.4 6.0 74.0- 7.3 8.7---- 3.0------------
1956-10-12 9.5 11.4 8.8 8.0 84.3- 5.3 5.7---- 0.0------------
1956-10-11 8.3 10.5 3.0 1.2 82.8- 6.7 4.3---- 0.0------------
1956-10-10 5.4 10.5 -1.0 -3.9 74.3- 5.7 1.0---- 0.0------------
1956-10-09 5.7 9.5 2.3 0.7 92.3- 5.3 3.7---- 1.8------------
1956-10-08 5.1 9.0 3.7 3.3 89.0- 7.0 3.0---- 1.0------------
1956-10-07 6.9 9.8 5.9 5.1 82.3- 7.3 6.7---- 1.2------------
1956-10-06 6.4 12.0 2.1 0.0 93.3- 8.0 2.3---- 2.1------------
1956-10-05 7.5 12.3 5.2 5.1 91.0- 4.7 1.7---- 3.8------------
1956-10-04 8.2 14.2 3.0 0.0 92.8- 5.3 2.0---- 3.3------------
1956-10-03 10.7 16.6 5.8 10.2 91.3- 5.0 4.0---- 0.2------------
1956-10-02 15.6 24.4 7.9 6.0 84.5- 5.7 4.3---- 1.7------------
1956-10-01 14.9 23.2 6.6 5.1 82.5- 3.7 3.3---- 0.0------------
1956-09-30 11.5 18.4 8.8 7.2 89.8- 4.0 4.3---- 0.0------------
1956-09-29 13.8 18.9 11.4 13.0 83.3- 3.3 6.7---- 0.0------------
1956-09-28 16.0 19.4 10.6 7.3 78.3- 5.3 6.3---- 0.0------------
1956-09-27 16.4 23.0 12.2 10.3 73.8- 1.3 4.3---- 0.0------------
1956-09-26 17.6 24.0 8.0 6.6 58.0- 0.0 6.0---- 0.0------------
1956-09-25 11.7 20.6 2.5 -0.4 75.0- 0.0 3.3---- 0.0------------
1956-09-24 9.1 17.1 4.5 4.8 65.8- 0.0 5.0---- 0.0------------
1956-09-23 10.9 17.9 7.8 5.7 78.0- 2.3 3.7---- 0.0------------
1956-09-22 12.4 19.1 1.5 1.1 77.0- 0.3 2.3---- 0.0------------
1956-09-21 9.7 18.1 1.7 0.1 81.5- 0.0 0.3---- 0.0------------
1956-09-20 8.8 18.1 3.5 0.4 84.5- 3.0 0.3---- 0.0------------
1956-09-19 8.2 17.9 -0.2 2.2 80.3- 1.0 1.3---- 0.0------------
1956-09-18 8.4 14.8 4.9 3.2 86.0- 2.0 2.0---- 0.0------------
1956-09-17 9.3 15.3 7.0 6.4 80.8- 4.3 4.3---- 0.0------------
1956-09-16 10.9 15.3 6.3 4.0 80.5- 6.7 5.7---- 0.4------------
1956-09-15 10.7 16.2 5.4 2.5 82.5- 4.0 3.7---- 0.0------------
1956-09-14 10.9 17.3 5.6 3.6 83.0- 1.3 1.3---- 0.0------------
1956-09-13 10.1 13.9 6.8 5.8 86.5- 5.3 4.0---- 2.6------------
1956-09-12 11.2 15.8 8.3 12.8 87.5- 7.3 5.7---- 1.3------------
1956-09-11 15.2 19.5 12.9 11.6 88.3- 6.7 2.3---- 10.1------------
267.8 ms

 

Źródłem pochodzenia danych jest Instytut Meteorologii i Gospodarki Wodnej – Państwowy Instytut Badawczy. Dane Instytutu Meteorologii i Gospodarki Wodnej – Państwowego Instytutu Badawczego zostały przetworzone.

Dane źródłowe można odnaleźć na stronie https://dane.imgw.pl